createdAt,value
2019-03-27T00:03:54.218Z,9.95
2019-03-27T00:09:02.504Z,8.90
2019-03-27T00:14:15.200Z,9.06
2019-03-27T00:19:12.835Z,8.52
2019-03-27T00:24:20.732Z,9.69
2019-03-27T00:29:28.809Z,9.44
2019-03-27T00:34:36.740Z,9.01
2019-03-27T00:39:44.689Z,11.14
2019-03-27T00:44:52.345Z,9.26
2019-03-27T00:50:00.261Z,9.75
2019-03-27T00:55:08.291Z,9.33
2019-03-27T01:00:16.336Z,9.39
2019-03-27T01:05:24.321Z,9.31
2019-03-27T01:10:32.100Z,8.84
2019-03-27T01:15:40.345Z,9.29
2019-03-27T01:20:47.442Z,8.29
2019-03-27T01:25:55.608Z,9.37
2019-03-27T01:31:03.568Z,8.70
2019-03-27T01:36:11.615Z,7.00
2019-03-27T01:41:19.627Z,7.97
2019-03-27T01:46:27.369Z,8.28
2019-03-27T01:51:35.240Z,7.34
2019-03-27T01:56:43.196Z,7.41
2019-03-27T02:01:51.096Z,8.70
2019-03-27T02:06:59.022Z,8.19
2019-03-27T02:12:06.976Z,7.46
2019-03-27T02:17:15.025Z,8.93
2019-03-27T02:22:23.192Z,9.18
2019-03-27T02:27:30.965Z,9.90
2019-03-27T02:32:38.678Z,8.63
2019-03-27T02:37:46.457Z,8.94
2019-03-27T02:42:54.265Z,9.86
2019-03-27T02:48:02.215Z,8.87
2019-03-27T02:53:10.144Z,8.60
2019-03-27T02:58:17.924Z,10.51
2019-03-27T03:03:25.893Z,9.11
2019-03-27T03:08:33.692Z,9.79
2019-03-27T03:13:41.489Z,8.42
2019-03-27T03:18:49.267Z,8.83
2019-03-27T03:23:57.313Z,7.57
2019-03-27T03:29:05.149Z,8.97
2019-03-27T03:34:12.835Z,8.58
2019-03-27T03:39:20.524Z,8.35
2019-03-27T03:44:28.787Z,7.96
2019-03-27T03:49:36.402Z,7.75
2019-03-27T03:54:44.390Z,8.86
2019-03-27T03:59:52.352Z,8.71
2019-03-27T04:05:00.606Z,8.98
2019-03-27T04:10:08.558Z,7.40
2019-03-27T04:15:16.485Z,10.36
2019-03-27T04:20:24.381Z,9.71
2019-03-27T04:26:00.476Z,11.08
2019-03-27T04:30:32.849Z,10.48
2019-03-27T04:35:40.750Z,9.93
2019-03-27T04:40:48.646Z,11.38
2019-03-27T04:45:56.845Z,9.59
2019-03-27T04:51:04.618Z,8.65
2019-03-27T04:56:12.332Z,10.65
2019-03-27T05:01:20.142Z,10.14
2019-03-27T05:06:27.823Z,10.36
2019-03-27T05:11:35.603Z,10.61
2019-03-27T05:16:43.195Z,11.20
2019-03-27T05:21:51.363Z,9.57
2019-03-27T05:26:59.017Z,9.87
2019-03-27T05:32:06.589Z,10.60
2019-03-27T05:37:14.300Z,15.73
2019-03-27T05:42:22.014Z,15.12
2019-03-27T05:47:29.680Z,15.95
2019-03-27T05:52:37.963Z,13.92
2019-03-27T05:57:45.499Z,12.79
2019-03-27T06:02:53.213Z,12.19
2019-03-27T06:08:00.778Z,12.18
2019-03-27T06:13:08.345Z,14.19
2019-03-27T06:18:15.885Z,12.22
2019-03-27T06:23:23.814Z,11.16
2019-03-27T06:28:31.377Z,12.84
2019-03-27T06:33:38.997Z,13.00
2019-03-27T06:38:46.543Z,13.84
2019-03-27T06:43:54.587Z,13.37
2019-03-27T06:49:02.242Z,12.53
2019-03-27T06:54:10.197Z,12.54
2019-03-27T06:59:17.858Z,12.78
2019-03-27T07:04:25.569Z,13.04
2019-03-27T07:09:33.503Z,14.40
2019-03-27T07:14:41.903Z,14.62
2019-03-27T07:19:50.838Z,14.22
2019-03-27T07:25:00.500Z,13.41
2019-03-27T07:30:10.348Z,12.68
2019-03-27T07:35:20.068Z,10.93
2019-03-27T07:40:29.790Z,11.39
2019-03-27T07:45:44.434Z,13.97
2019-03-27T07:50:44.209Z,12.38
2019-03-27T07:55:53.935Z,13.99
2019-03-27T08:01:03.653Z,23.50
2019-03-27T08:06:13.380Z,26.20
2019-03-27T08:11:23.394Z,23.88
2019-03-27T08:16:32.960Z,23.23
2019-03-27T08:21:42.680Z,22.57
2019-03-27T08:26:52.045Z,32.57
2019-03-27T08:32:00.749Z,31.51
2019-03-27T08:37:09.393Z,30.28
2019-03-27T08:42:17.799Z,29.28
2019-03-27T08:47:26.205Z,28.81
2019-03-27T08:52:34.611Z,28.96
2019-03-27T08:57:42.966Z,22.84
2019-03-27T09:02:51.058Z,18.94
2019-03-27T09:07:59.463Z,20.06
2019-03-27T09:13:07.390Z,23.35
2019-03-27T09:18:16.875Z,26.30
2019-03-27T09:23:23.239Z,28.66
2019-03-27T09:28:31.483Z,25.59
2019-03-27T09:33:39.649Z,26.00
2019-03-27T09:38:47.855Z,27.34
2019-03-27T09:43:56.022Z,29.26
2019-03-27T09:49:04.185Z,29.00
2019-03-27T09:54:12.468Z,27.62
2019-03-27T09:59:20.481Z,25.86
2019-03-27T10:04:28.687Z,25.98
2019-03-27T10:09:36.576Z,24.41
2019-03-27T10:14:47.308Z,21.03
2019-03-27T10:20:02.882Z,54.71
2019-03-27T10:25:00.378Z,16.47
2019-03-27T10:30:08.217Z,16.91
2019-03-27T10:35:16.446Z,20.74
2019-03-27T10:40:24.761Z,26.01
2019-03-27T10:45:32.899Z,23.53
2019-03-27T10:50:41.459Z,20.70
2019-03-27T10:55:49.499Z,16.30
2019-03-27T11:00:57.551Z,14.05
2019-03-27T11:06:05.577Z,17.66
2019-03-27T11:11:13.638Z,19.95
2019-03-27T11:16:21.566Z,21.15
2019-03-27T11:21:29.638Z,23.70
2019-03-27T11:26:37.639Z,15.73
2019-03-27T11:31:45.835Z,16.53
2019-03-27T11:37:00.331Z,15.13
2019-03-27T11:42:00.829Z,14.40
2019-03-27T11:47:06.032Z,15.24
2019-03-27T11:52:13.959Z,12.61
2019-03-27T11:57:21.865Z,12.10
2019-03-27T12:02:29.758Z,13.12
2019-03-27T12:07:37.713Z,13.07
2019-03-27T12:12:48.099Z,13.69
2019-03-27T12:17:53.414Z,14.37
2019-03-27T12:23:01.489Z,13.67
2019-03-27T12:28:09.535Z,12.75
2019-03-27T12:33:17.704Z,13.36
2019-03-27T12:38:25.992Z,13.35
2019-03-27T12:43:34.634Z,11.90
2019-03-27T12:48:43.281Z,12.73
2019-03-27T12:53:51.902Z,12.88
2019-03-27T12:59:00.453Z,12.63
2019-03-27T13:04:09.223Z,13.52
2019-03-27T13:09:18.107Z,13.56
2019-03-27T13:14:26.755Z,13.36
2019-03-27T13:19:35.403Z,13.02
2019-03-27T13:24:44.175Z,13.91
2019-03-27T13:29:52.939Z,14.79
2019-03-27T13:35:02.273Z,14.80
2019-03-27T13:40:10.567Z,15.11
2019-03-27T13:45:18.243Z,13.24
2019-03-27T13:50:26.077Z,12.29
2019-03-27T13:55:35.231Z,13.94
2019-03-27T14:00:40.975Z,13.24
2019-03-27T14:05:48.898Z,12.13
2019-03-27T14:10:56.710Z,13.16
2019-03-27T14:16:04.389Z,10.41
2019-03-27T14:21:12.077Z,12.17
2019-03-27T14:26:19.913Z,10.64
2019-03-27T14:31:27.543Z,11.26
2019-03-27T14:36:35.286Z,9.91
2019-03-27T14:41:43.638Z,10.94
2019-03-27T14:46:51.590Z,10.13
2019-03-27T14:52:08.098Z,9.08
2019-03-27T14:57:07.655Z,11.05
2019-03-27T15:02:16.094Z,10.06
2019-03-27T15:07:24.735Z,9.65
2019-03-27T15:12:33.514Z,11.39
2019-03-27T15:17:42.270Z,11.88
2019-03-27T15:22:50.656Z,12.59
2019-03-27T15:27:58.333Z,11.82
2019-03-27T15:33:06.919Z,12.51
2019-03-27T15:38:15.785Z,12.79
2019-03-27T15:43:28.956Z,13.00
2019-03-27T15:48:27.806Z,12.28
2019-03-27T15:53:36.079Z,11.83
2019-03-27T15:58:43.883Z,12.95
2019-03-27T16:03:51.782Z,12.28
2019-03-27T16:09:00.335Z,11.44
2019-03-27T16:14:08.953Z,13.11
2019-03-27T16:19:16.881Z,12.37
2019-03-27T16:24:25.557Z,12.77
2019-03-27T16:29:33.333Z,14.05
2019-03-27T16:34:41.656Z,13.01
2019-03-27T16:39:49.574Z,12.87
2019-03-27T16:44:57.357Z,12.46
2019-03-27T16:50:05.279Z,14.29
2019-03-27T16:55:13.446Z,12.95
2019-03-27T17:00:22.694Z,13.11
2019-03-27T17:05:31.460Z,13.10
2019-03-27T17:10:40.109Z,12.78
2019-03-27T17:15:48.874Z,12.76
2019-03-27T17:20:59.559Z,13.35
2019-03-27T17:25:57.333Z,14.28
2019-03-27T17:31:05.840Z,13.31
2019-03-27T17:36:14.579Z,14.01
2019-03-27T17:41:22.985Z,14.75
2019-03-27T17:46:33.913Z,16.78
2019-03-27T17:51:34.519Z,13.96
2019-03-27T17:56:35.488Z,14.02
2019-03-27T18:01:34.912Z,13.00
2019-03-27T18:06:43.476Z,13.14
2019-03-27T18:11:51.644Z,13.92
2019-03-27T18:17:00.356Z,13.81
2019-03-27T18:22:08.669Z,15.13
2019-03-27T18:27:18.125Z,15.03
2019-03-27T18:32:26.412Z,14.38
2019-03-27T18:37:36.066Z,13.26
2019-03-27T18:42:44.451Z,13.82
2019-03-27T18:47:52.712Z,15.08
2019-03-27T18:53:01.117Z,14.39
2019-03-27T18:58:08.837Z,14.24
2019-03-27T19:03:16.761Z,12.76
2019-03-27T19:08:26.754Z,14.04
2019-03-27T19:13:36.551Z,13.94
2019-03-27T19:18:45.943Z,13.48
2019-03-27T19:23:55.191Z,13.42
2019-03-27T19:29:07.897Z,13.31
2019-03-27T19:34:06.692Z,13.93
2019-03-27T19:39:16.059Z,14.17
2019-03-27T19:44:24.223Z,12.76
2019-03-27T19:49:33.479Z,13.00
2019-03-27T19:54:47.845Z,13.36
2019-03-27T19:59:46.021Z,13.82
2019-03-27T20:04:55.451Z,14.12
2019-03-27T20:10:03.554Z,14.98
2019-03-27T20:15:12.921Z,16.44
2019-03-27T20:20:20.793Z,17.03
2019-03-27T20:25:29.677Z,16.81
2019-03-27T20:30:37.511Z,16.57
2019-03-27T20:35:45.323Z,17.34
2019-03-27T20:40:54.298Z,16.88
2019-03-27T20:46:03.070Z,18.07
2019-03-27T20:51:11.375Z,17.26
2019-03-27T20:56:22.770Z,17.24
2019-03-27T21:01:20.845Z,17.21
2019-03-27T21:06:31.530Z,17.65
2019-03-27T21:11:31.098Z,17.63
2019-03-27T21:16:39.608Z,17.44
2019-03-27T21:21:49.429Z,17.02
2019-03-27T21:27:02.635Z,17.71
2019-03-27T21:32:00.483Z,19.31
2019-03-27T21:37:09.879Z,18.42
2019-03-27T21:42:19.365Z,18.81
2019-03-27T21:47:31.943Z,18.36
2019-03-27T21:52:31.708Z,19.85
2019-03-27T21:57:42.397Z,19.76
2019-03-27T22:02:41.255Z,19.30
2019-03-27T22:07:49.248Z,19.46
2019-03-27T22:12:57.054Z,20.40
2019-03-27T22:18:04.980Z,21.13
2019-03-27T22:23:13.265Z,20.52
2019-03-27T22:28:20.861Z,20.59
2019-03-27T22:33:29.425Z,20.45
2019-03-27T22:38:37.075Z,20.12
2019-03-27T22:43:44.788Z,20.49
2019-03-27T22:48:52.474Z,21.55
2019-03-27T22:54:00.464Z,20.82
2019-03-27T22:59:10.793Z,19.69
2019-03-27T23:04:08.308Z,19.06
2019-03-27T23:09:16.148Z,19.09
2019-03-27T23:14:23.676Z,18.73
2019-03-27T23:19:31.273Z,19.78
2019-03-27T23:24:38.783Z,17.85
2019-03-27T23:29:46.645Z,18.51
2019-03-27T23:34:54.395Z,19.72
2019-03-27T23:40:02.130Z,19.42
2019-03-27T23:45:58.881Z,19.54
2019-03-27T23:51:05.846Z,19.01
2019-03-27T23:55:24.090Z,19.58
